sensor_id;sensor_type;location;lat;lon;timestamp;temperature;humidity
2783;DHT22;1399;47.072;15.452;2023-03-17T00:00:47;8.50;29.90
2783;DHT22;1399;47.072;15.452;2023-03-17T00:03:25;8.50;30.00
2783;DHT22;1399;47.072;15.452;2023-03-17T00:05:52;8.50;30.00
2783;DHT22;1399;47.072;15.452;2023-03-17T00:08:27;8.50;30.00
2783;DHT22;1399;47.072;15.452;2023-03-17T00:10:53;8.40;30.30
2783;DHT22;1399;47.072;15.452;2023-03-17T00:13:20;8.40;30.00
2783;DHT22;1399;47.072;15.452;2023-03-17T00:15:49;8.40;30.10
2783;DHT22;1399;47.072;15.452;2023-03-17T00:18:17;8.40;30.20
2783;DHT22;1399;47.072;15.452;2023-03-17T00:20:44;8.40;30.20
2783;DHT22;1399;47.072;15.452;2023-03-17T00:23:21;8.30;30.20
2783;DHT22;1399;47.072;15.452;2023-03-17T00:25:49;8.30;30.30
2783;DHT22;1399;47.072;15.452;2023-03-17T00:28:19;8.30;30.30
2783;DHT22;1399;47.072;15.452;2023-03-17T00:30:46;8.30;30.40
2783;DHT22;1399;47.072;15.452;2023-03-17T00:33:13;8.30;30.40
2783;DHT22;1399;47.072;15.452;2023-03-17T00:35:43;8.20;30.40
2783;DHT22;1399;47.072;15.452;2023-03-17T00:38:15;8.20;30.50
2783;DHT22;1399;47.072;15.452;2023-03-17T00:40:41;8.20;30.50
2783;DHT22;1399;47.072;15.452;2023-03-17T00:43:07;8.20;30.60
2783;DHT22;1399;47.072;15.452;2023-03-17T00:45:33;8.20;30.70
2783;DHT22;1399;47.072;15.452;2023-03-17T00:47:59;8.20;30.70
2783;DHT22;1399;47.072;15.452;2023-03-17T00:50:27;8.10;30.70
2783;DHT22;1399;47.072;15.452;2023-03-17T00:52:55;8.10;30.80
2783;DHT22;1399;47.072;15.452;2023-03-17T00:55:22;8.10;30.80
2783;DHT22;1399;47.072;15.452;2023-03-17T00:57:49;8.10;30.80
2783;DHT22;1399;47.072;15.452;2023-03-17T01:00:28;8.10;30.90
2783;DHT22;1399;47.072;15.452;2023-03-17T01:02:55;8.10;30.90
2783;DHT22;1399;47.072;15.452;2023-03-17T01:05:23;8.10;31.00
2783;DHT22;1399;47.072;15.452;2023-03-17T01:07:54;8.00;30.90
2783;DHT22;1399;47.072;15.452;2023-03-17T01:10:24;8.00;31.00
2783;DHT22;1399;47.072;15.452;2023-03-17T01:12:55;8.00;31.00
2783;DHT22;1399;47.072;15.452;2023-03-17T01:15:23;8.00;31.10
2783;DHT22;1399;47.072;15.452;2023-03-17T01:17:50;8.00;31.10
2783;DHT22;1399;47.072;15.452;2023-03-17T01:20:23;8.00;31.20
2783;DHT22;1399;47.072;15.452;2023-03-17T01:22:49;8.00;31.20
2783;DHT22;1399;47.072;15.452;2023-03-17T01:25:16;8.00;31.30
2783;DHT22;1399;47.072;15.452;2023-03-17T01:27:43;7.90;31.20
2783;DHT22;1399;47.072;15.452;2023-03-17T01:32:57;7.90;31.30
2783;DHT22;1399;47.072;15.452;2023-03-17T01:35:24;7.90;31.20
2783;DHT22;1399;47.072;15.452;2023-03-17T01:37:50;7.90;31.30
2783;DHT22;1399;47.072;15.452;2023-03-17T01:40:20;7.90;31.30
2783;DHT22;1399;47.072;15.452;2023-03-17T01:42:52;7.90;31.30
2783;DHT22;1399;47.072;15.452;2023-03-17T01:48:24;7.90;31.30
2783;DHT22;1399;47.072;15.452;2023-03-17T01:50:51;7.80;31.30
2783;DHT22;1399;47.072;15.452;2023-03-17T01:53:18;7.80;31.30
2783;DHT22;1399;47.072;15.452;2023-03-17T01:55:46;7.80;31.30
2783;DHT22;1399;47.072;15.452;2023-03-17T01:58:15;7.80;31.30
2783;DHT22;1399;47.072;15.452;2023-03-17T02:00:42;7.80;31.40
2783;DHT22;1399;47.072;15.452;2023-03-17T02:03:09;7.80;31.50
2783;DHT22;1399;47.072;15.452;2023-03-17T02:05:36;7.80;31.40
2783;DHT22;1399;47.072;15.452;2023-03-17T02:08:11;7.80;31.40
2783;DHT22;1399;47.072;15.452;2023-03-17T02:10:37;7.80;31.50
2783;DHT22;1399;47.072;15.452;2023-03-17T02:13:03;7.80;31.50
2783;DHT22;1399;47.072;15.452;2023-03-17T02:18:08;7.80;31.60
2783;DHT22;1399;47.072;15.452;2023-03-17T02:23:00;7.70;31.50
2783;DHT22;1399;47.072;15.452;2023-03-17T02:25:28;7.70;31.50
2783;DHT22;1399;47.072;15.452;2023-03-17T02:28:16;7.70;31.50
2783;DHT22;1399;47.072;15.452;2023-03-17T02:30:43;7.60;31.60
2783;DHT22;1399;47.072;15.452;2023-03-17T02:33:09;7.70;31.70
2783;DHT22;1399;47.072;15.452;2023-03-17T02:35:37;7.70;31.70
2783;DHT22;1399;47.072;15.452;2023-03-17T02:38:03;7.70;31.70
2783;DHT22;1399;47.072;15.452;2023-03-17T02:40:29;7.70;31.70
2783;DHT22;1399;47.072;15.452;2023-03-17T02:42:54;7.70;31.70
2783;DHT22;1399;47.072;15.452;2023-03-17T02:45:21;7.70;31.80
2783;DHT22;1399;47.072;15.452;2023-03-17T02:47:49;7.70;31.90
2783;DHT22;1399;47.072;15.452;2023-03-17T02:50:22;7.70;31.80
2783;DHT22;1399;47.072;15.452;2023-03-17T02:52:49;7.70;31.80
2783;DHT22;1399;47.072;15.452;2023-03-17T02:55:15;7.70;31.80
2783;DHT22;1399;47.072;15.452;2023-03-17T02:57:41;7.60;31.80
2783;DHT22;1399;47.072;15.452;2023-03-17T03:00:08;7.70;31.90
2783;DHT22;1399;47.072;15.452;2023-03-17T03:02:37;7.70;31.90
2783;DHT22;1399;47.072;15.452;2023-03-17T03:05:04;7.70;31.90
2783;DHT22;1399;47.072;15.452;2023-03-17T03:07:30;7.70;31.90
2783;DHT22;1399;47.072;15.452;2023-03-17T03:09:57;7.70;31.90
2783;DHT22;1399;47.072;15.452;2023-03-17T03:12:23;7.70;31.90
2783;DHT22;1399;47.072;15.452;2023-03-17T03:14:49;7.70;31.90
2783;DHT22;1399;47.072;15.452;2023-03-17T03:17:15;7.60;31.80
2783;DHT22;1399;47.072;15.452;2023-03-17T03:19:41;7.60;31.80
2783;DHT22;1399;47.072;15.452;2023-03-17T03:22:08;7.60;31.80
2783;DHT22;1399;47.072;15.452;2023-03-17T03:24:33;7.60;31.90
2783;DHT22;1399;47.072;15.452;2023-03-17T03:26:59;7.70;32.00
2783;DHT22;1399;47.072;15.452;2023-03-17T03:29:25;7.60;31.90
2783;DHT22;1399;47.072;15.452;2023-03-17T03:31:51;7.60;31.90
2783;DHT22;1399;47.072;15.452;2023-03-17T03:34:17;7.60;32.00
2783;DHT22;1399;47.072;15.452;2023-03-17T03:36:43;7.60;32.00
2783;DHT22;1399;47.072;15.452;2023-03-17T03:39:08;7.60;32.10
2783;DHT22;1399;47.072;15.452;2023-03-17T03:41:35;7.60;32.10
2783;DHT22;1399;47.072;15.452;2023-03-17T03:44:01;7.60;32.10
2783;DHT22;1399;47.072;15.452;2023-03-17T03:46:27;7.60;32.10
2783;DHT22;1399;47.072;15.452;2023-03-17T03:48:53;7.60;32.10
2783;DHT22;1399;47.072;15.452;2023-03-17T03:51:19;7.60;32.20
2783;DHT22;1399;47.072;15.452;2023-03-17T03:53:45;7.60;32.20
2783;DHT22;1399;47.072;15.452;2023-03-17T03:56:13;7.60;32.20
2783;DHT22;1399;47.072;15.452;2023-03-17T03:58:38;7.60;32.20
2783;DHT22;1399;47.072;15.452;2023-03-17T04:01:07;7.60;32.20
2783;DHT22;1399;47.072;15.452;2023-03-17T04:03:34;7.60;32.20
2783;DHT22;1399;47.072;15.452;2023-03-17T04:06:00;7.60;32.20
2783;DHT22;1399;47.072;15.452;2023-03-17T04:08:25;7.60;32.30
2783;DHT22;1399;47.072;15.452;2023-03-17T04:10:51;7.60;32.30
2783;DHT22;1399;47.072;15.452;2023-03-17T04:13:17;7.50;32.30
2783;DHT22;1399;47.072;15.452;2023-03-17T04:15:43;7.50;32.40
2783;DHT22;1399;47.072;15.452;2023-03-17T04:18:08;7.50;32.40
2783;DHT22;1399;47.072;15.452;2023-03-17T04:20:34;7.50;32.40
2783;DHT22;1399;47.072;15.452;2023-03-17T04:23:00;7.50;32.40
2783;DHT22;1399;47.072;15.452;2023-03-17T04:25:26;7.50;32.50
2783;DHT22;1399;47.072;15.452;2023-03-17T04:27:52;7.50;32.40
2783;DHT22;1399;47.072;15.452;2023-03-17T04:30:17;7.50;32.40
2783;DHT22;1399;47.072;15.452;2023-03-17T04:32:44;7.50;32.40
2783;DHT22;1399;47.072;15.452;2023-03-17T04:35:15;7.50;32.40
2783;DHT22;1399;47.072;15.452;2023-03-17T04:37:41;7.50;32.40
2783;DHT22;1399;47.072;15.452;2023-03-17T04:40:08;7.50;32.50
2783;DHT22;1399;47.072;15.452;2023-03-17T04:42:35;7.50;32.50
2783;DHT22;1399;47.072;15.452;2023-03-17T04:45:02;7.50;32.50
2783;DHT22;1399;47.072;15.452;2023-03-17T04:47:27;7.50;32.70
2783;DHT22;1399;47.072;15.452;2023-03-17T04:49:53;7.50;32.60
2783;DHT22;1399;47.072;15.452;2023-03-17T04:52:19;7.40;32.60
2783;DHT22;1399;47.072;15.452;2023-03-17T04:54:45;7.40;33.20
2783;DHT22;1399;47.072;15.452;2023-03-17T04:57:10;7.40;32.60
2783;DHT22;1399;47.072;15.452;2023-03-17T04:59:36;7.40;32.60
2783;DHT22;1399;47.072;15.452;2023-03-17T05:02:02;7.40;32.60
2783;DHT22;1399;47.072;15.452;2023-03-17T05:04:28;7.40;32.60
2783;DHT22;1399;47.072;15.452;2023-03-17T05:06:53;7.40;32.60
2783;DHT22;1399;47.072;15.452;2023-03-17T05:09:23;7.40;32.60
2783;DHT22;1399;47.072;15.452;2023-03-17T05:11:48;7.40;32.60
2783;DHT22;1399;47.072;15.452;2023-03-17T05:14:15;7.40;32.70
2783;DHT22;1399;47.072;15.452;2023-03-17T05:16:41;7.40;32.70
2783;DHT22;1399;47.072;15.452;2023-03-17T05:19:07;7.40;32.70
2783;DHT22;1399;47.072;15.452;2023-03-17T05:21:33;7.40;32.70
2783;DHT22;1399;47.072;15.452;2023-03-17T05:23:59;7.40;32.70
2783;DHT22;1399;47.072;15.452;2023-03-17T05:26:24;7.40;32.70
2783;DHT22;1399;47.072;15.452;2023-03-17T05:28:50;7.40;32.70
2783;DHT22;1399;47.072;15.452;2023-03-17T05:31:16;7.40;32.80
2783;DHT22;1399;47.072;15.452;2023-03-17T05:33:43;7.40;32.80
2783;DHT22;1399;47.072;15.452;2023-03-17T05:36:10;7.40;32.80
2783;DHT22;1399;47.072;15.452;2023-03-17T05:38:36;7.50;32.90
2783;DHT22;1399;47.072;15.452;2023-03-17T05:41:02;7.50;32.90
2783;DHT22;1399;47.072;15.452;2023-03-17T05:43:28;7.50;32.90
2783;DHT22;1399;47.072;15.452;2023-03-17T05:45:54;7.50;32.90
2783;DHT22;1399;47.072;15.452;2023-03-17T05:48:20;7.50;33.00
2783;DHT22;1399;47.072;15.452;2023-03-17T05:50:47;7.50;33.00
2783;DHT22;1399;47.072;15.452;2023-03-17T05:53:12;7.50;33.00
2783;DHT22;1399;47.072;15.452;2023-03-17T05:55:38;7.50;33.00
2783;DHT22;1399;47.072;15.452;2023-03-17T05:58:04;7.60;33.10
2783;DHT22;1399;47.072;15.452;2023-03-17T06:00:31;7.60;33.00
2783;DHT22;1399;47.072;15.452;2023-03-17T06:02:57;7.60;33.00
2783;DHT22;1399;47.072;15.452;2023-03-17T06:05:23;7.60;33.00
2783;DHT22;1399;47.072;15.452;2023-03-17T06:07:49;7.60;33.00
2783;DHT22;1399;47.072;15.452;2023-03-17T06:10:15;7.70;33.00
2783;DHT22;1399;47.072;15.452;2023-03-17T06:12:41;7.70;32.90
2783;DHT22;1399;47.072;15.452;2023-03-17T06:15:07;7.70;32.80
2783;DHT22;1399;47.072;15.452;2023-03-17T06:17:34;7.70;32.90
2783;DHT22;1399;47.072;15.452;2023-03-17T06:20:00;7.80;32.90
2783;DHT22;1399;47.072;15.452;2023-03-17T06:22:26;7.80;32.80
2783;DHT22;1399;47.072;15.452;2023-03-17T06:24:52;7.90;32.80
2783;DHT22;1399;47.072;15.452;2023-03-17T06:27:18;7.90;32.80
2783;DHT22;1399;47.072;15.452;2023-03-17T06:29:44;8.00;33.00
2783;DHT22;1399;47.072;15.452;2023-03-17T06:32:10;8.00;33.00
2783;DHT22;1399;47.072;15.452;2023-03-17T06:34:37;8.10;33.00
2783;DHT22;1399;47.072;15.452;2023-03-17T06:37:02;8.20;32.90
2783;DHT22;1399;47.072;15.452;2023-03-17T06:39:29;8.30;32.80
2783;DHT22;1399;47.072;15.452;2023-03-17T06:41:55;8.40;32.60
2783;DHT22;1399;47.072;15.452;2023-03-17T06:44:21;8.50;32.50
2783;DHT22;1399;47.072;15.452;2023-03-17T06:46:46;8.60;32.30
2783;DHT22;1399;47.072;15.452;2023-03-17T06:49:12;8.70;32.10
2783;DHT22;1399;47.072;15.452;2023-03-17T06:51:38;8.80;31.90
2783;DHT22;1399;47.072;15.452;2023-03-17T06:54:05;8.90;31.80
2783;DHT22;1399;47.072;15.452;2023-03-17T06:56:31;9.10;31.70
2783;DHT22;1399;47.072;15.452;2023-03-17T06:58:57;9.20;31.50
2783;DHT22;1399;47.072;15.452;2023-03-17T07:01:24;9.30;31.20
2783;DHT22;1399;47.072;15.452;2023-03-17T07:03:51;9.40;31.00
2783;DHT22;1399;47.072;15.452;2023-03-17T07:06:17;9.50;30.80
2783;DHT22;1399;47.072;15.452;2023-03-17T07:08:43;9.60;30.60
2783;DHT22;1399;47.072;15.452;2023-03-17T07:11:10;9.70;30.60
2783;DHT22;1399;47.072;15.452;2023-03-17T07:13:35;9.80;30.60
2783;DHT22;1399;47.072;15.452;2023-03-17T07:16:03;9.90;30.60
2783;DHT22;1399;47.072;15.452;2023-03-17T07:18:30;9.90;30.20
2783;DHT22;1399;47.072;15.452;2023-03-17T07:20:57;10.00;29.50
2783;DHT22;1399;47.072;15.452;2023-03-17T07:23:23;10.10;29.30
2783;DHT22;1399;47.072;15.452;2023-03-17T07:25:49;10.10;29.20
2783;DHT22;1399;47.072;15.452;2023-03-17T07:28:15;10.20;29.20
2783;DHT22;1399;47.072;15.452;2023-03-17T07:30:41;10.20;29.10
2783;DHT22;1399;47.072;15.452;2023-03-17T07:33:11;10.30;29.00
2783;DHT22;1399;47.072;15.452;2023-03-17T07:35:37;10.40;29.00
2783;DHT22;1399;47.072;15.452;2023-03-17T07:38:04;10.40;28.80
2783;DHT22;1399;47.072;15.452;2023-03-17T07:40:30;10.50;28.70
2783;DHT22;1399;47.072;15.452;2023-03-17T07:42:56;10.50;28.50
2783;DHT22;1399;47.072;15.452;2023-03-17T07:45:21;10.60;28.70
2783;DHT22;1399;47.072;15.452;2023-03-17T07:47:47;10.60;28.70
2783;DHT22;1399;47.072;15.452;2023-03-17T07:50:13;10.70;28.70
2783;DHT22;1399;47.072;15.452;2023-03-17T07:52:39;10.70;28.60
2783;DHT22;1399;47.072;15.452;2023-03-17T07:55:06;10.80;28.60
2783;DHT22;1399;47.072;15.452;2023-03-17T07:57:35;10.90;29.10
2783;DHT22;1399;47.072;15.452;2023-03-17T08:00:01;10.90;28.60
2783;DHT22;1399;47.072;15.452;2023-03-17T08:02:28;11.00;28.70
2783;DHT22;1399;47.072;15.452;2023-03-17T08:04:54;11.00;28.70
2783;DHT22;1399;47.072;15.452;2023-03-17T08:07:21;11.10;28.90
2783;DHT22;1399;47.072;15.452;2023-03-17T08:09:47;11.10;28.90
2783;DHT22;1399;47.072;15.452;2023-03-17T08:12:13;11.20;29.00
2783;DHT22;1399;47.072;15.452;2023-03-17T08:14:39;11.20;28.90
2783;DHT22;1399;47.072;15.452;2023-03-17T08:17:06;11.20;28.90
2783;DHT22;1399;47.072;15.452;2023-03-17T08:19:32;11.30;29.00
2783;DHT22;1399;47.072;15.452;2023-03-17T08:21:58;11.30;29.10
2783;DHT22;1399;47.072;15.452;2023-03-17T08:24:25;11.40;28.90
2783;DHT22;1399;47.072;15.452;2023-03-17T08:26:51;11.40;28.90
2783;DHT22;1399;47.072;15.452;2023-03-17T08:29:17;11.40;29.00
2783;DHT22;1399;47.072;15.452;2023-03-17T08:31:43;11.50;29.10
2783;DHT22;1399;47.072;15.452;2023-03-17T08:34:09;11.50;29.00
2783;DHT22;1399;47.072;15.452;2023-03-17T08:36:35;11.50;28.90
2783;DHT22;1399;47.072;15.452;2023-03-17T08:39:02;11.50;28.80
2783;DHT22;1399;47.072;15.452;2023-03-17T08:41:29;11.50;28.80
2783;DHT22;1399;47.072;15.452;2023-03-17T08:43:56;11.50;28.80
2783;DHT22;1399;47.072;15.452;2023-03-17T08:46:28;11.50;28.70
2783;DHT22;1399;47.072;15.452;2023-03-17T08:48:55;11.50;28.70
2783;DHT22;1399;47.072;15.452;2023-03-17T08:51:26;11.50;28.90
2783;DHT22;1399;47.072;15.452;2023-03-17T08:53:53;11.50;28.90
2783;DHT22;1399;47.072;15.452;2023-03-17T08:56:20;11.50;29.10
2783;DHT22;1399;47.072;15.452;2023-03-17T08:58:47;11.60;29.40
2783;DHT22;1399;47.072;15.452;2023-03-17T09:01:13;11.60;29.60
2783;DHT22;1399;47.072;15.452;2023-03-17T09:03:40;11.60;29.60
2783;DHT22;1399;47.072;15.452;2023-03-17T09:06:08;11.70;29.80
2783;DHT22;1399;47.072;15.452;2023-03-17T09:08:36;11.70;29.40
2783;DHT22;1399;47.072;15.452;2023-03-17T09:11:05;11.80;29.10
2783;DHT22;1399;47.072;15.452;2023-03-17T09:13:32;11.80;29.40
2783;DHT22;1399;47.072;15.452;2023-03-17T09:15:58;11.80;29.60
2783;DHT22;1399;47.072;15.452;2023-03-17T09:18:26;11.80;29.50
2783;DHT22;1399;47.072;15.452;2023-03-17T09:20:51;11.90;29.50
2783;DHT22;1399;47.072;15.452;2023-03-17T09:23:17;11.90;29.30
2783;DHT22;1399;47.072;15.452;2023-03-17T09:25:43;11.90;29.40
2783;DHT22;1399;47.072;15.452;2023-03-17T09:28:11;11.90;29.20
2783;DHT22;1399;47.072;15.452;2023-03-17T09:30:40;11.90;29.10
2783;DHT22;1399;47.072;15.452;2023-03-17T09:33:08;12.00;29.40
2783;DHT22;1399;47.072;15.452;2023-03-17T09:35:34;12.00;29.30
2783;DHT22;1399;47.072;15.452;2023-03-17T09:38:00;12.10;29.10
2783;DHT22;1399;47.072;15.452;2023-03-17T09:40:32;12.10;29.50
2783;DHT22;1399;47.072;15.452;2023-03-17T09:45:45;12.20;29.60
2783;DHT22;1399;47.072;15.452;2023-03-17T09:51:12;12.30;30.00
2783;DHT22;1399;47.072;15.452;2023-03-17T09:54:01;12.30;30.00
2783;DHT22;1399;47.072;15.452;2023-03-17T09:56:32;12.30;29.90
2783;DHT22;1399;47.072;15.452;2023-03-17T10:01:32;12.40;29.70
2783;DHT22;1399;47.072;15.452;2023-03-17T10:03:58;12.40;29.50
2783;DHT22;1399;47.072;15.452;2023-03-17T10:09:22;12.50;29.90
2783;DHT22;1399;47.072;15.452;2023-03-17T10:17:11;12.60;30.00
2783;DHT22;1399;47.072;15.452;2023-03-17T10:22:36;12.70;30.10
2783;DHT22;1399;47.072;15.452;2023-03-17T10:25:22;12.70;29.90
2783;DHT22;1399;47.072;15.452;2023-03-17T10:27:54;12.70;29.90
2783;DHT22;1399;47.072;15.452;2023-03-17T10:30:21;12.70;30.00
2783;DHT22;1399;47.072;15.452;2023-03-17T10:32:48;12.70;29.80
2783;DHT22;1399;47.072;15.452;2023-03-17T10:35:14;12.70;29.70
2783;DHT22;1399;47.072;15.452;2023-03-17T10:37:42;12.70;30.00
2783;DHT22;1399;47.072;15.452;2023-03-17T10:40:23;12.70;30.00
2783;DHT22;1399;47.072;15.452;2023-03-17T10:42:54;12.70;30.20
2783;DHT22;1399;47.072;15.452;2023-03-17T10:45:33;12.60;30.00
2783;DHT22;1399;47.072;15.452;2023-03-17T10:48:01;12.70;30.00
2783;DHT22;1399;47.072;15.452;2023-03-17T10:50:35;12.70;30.10
2783;DHT22;1399;47.072;15.452;2023-03-17T10:55:40;12.70;30.00
2783;DHT22;1399;47.072;15.452;2023-03-17T10:58:20;12.70;29.70
2783;DHT22;1399;47.072;15.452;2023-03-17T11:00:54;12.80;29.70
2783;DHT22;1399;47.072;15.452;2023-03-17T11:03:22;12.80;29.60
2783;DHT22;1399;47.072;15.452;2023-03-17T11:08:21;12.80;30.00
2783;DHT22;1399;47.072;15.452;2023-03-17T11:10:53;12.80;30.00
2783;DHT22;1399;47.072;15.452;2023-03-17T11:13:20;12.80;29.60
2783;DHT22;1399;47.072;15.452;2023-03-17T11:15:50;12.80;29.70
2783;DHT22;1399;47.072;15.452;2023-03-17T11:18:23;12.80;30.50
2783;DHT22;1399;47.072;15.452;2023-03-17T11:26:30;12.90;30.60
2783;DHT22;1399;47.072;15.452;2023-03-17T11:29:15;12.90;30.60
2783;DHT22;1399;47.072;15.452;2023-03-17T11:40:32;13.00;31.80
2783;DHT22;1399;47.072;15.452;2023-03-17T11:59:00;13.00;31.10
2783;DHT22;1399;47.072;15.452;2023-03-17T12:01:46;13.10;31.00
2783;DHT22;1399;47.072;15.452;2023-03-17T12:04:17;13.10;31.00
2783;DHT22;1399;47.072;15.452;2023-03-17T12:06:58;13.10;30.90
2783;DHT22;1399;47.072;15.452;2023-03-17T12:12:02;13.10;30.00
2783;DHT22;1399;47.072;15.452;2023-03-17T12:14:34;13.10;29.60
2783;DHT22;1399;47.072;15.452;2023-03-17T12:17:36;13.10;29.50
2783;DHT22;1399;47.072;15.452;2023-03-17T12:27:58;13.10;30.00
2783;DHT22;1399;47.072;15.452;2023-03-17T12:30:40;13.20;30.50
2783;DHT22;1399;47.072;15.452;2023-03-17T12:35:44;13.20;31.10
2783;DHT22;1399;47.072;15.452;2023-03-17T12:38:16;13.20;31.20
2783;DHT22;1399;47.072;15.452;2023-03-17T12:43:37;13.20;31.00
2783;DHT22;1399;47.072;15.452;2023-03-17T12:54:34;13.20;32.10
2783;DHT22;1399;47.072;15.452;2023-03-17T12:57:19;13.20;32.10
2783;DHT22;1399;47.072;15.452;2023-03-17T12:59:48;13.30;32.10
2783;DHT22;1399;47.072;15.452;2023-03-17T13:02:37;13.30;31.70
2783;DHT22;1399;47.072;15.452;2023-03-17T13:05:13;13.30;31.40
2783;DHT22;1399;47.072;15.452;2023-03-17T13:13:06;13.30;32.40
2783;DHT22;1399;47.072;15.452;2023-03-17T13:23:41;13.30;32.20
2783;DHT22;1399;47.072;15.452;2023-03-17T13:26:17;13.30;31.80
2783;DHT22;1399;47.072;15.452;2023-03-17T13:28:46;13.30;31.30
2783;DHT22;1399;47.072;15.452;2023-03-17T13:31:29;13.30;31.00
2783;DHT22;1399;47.072;15.452;2023-03-17T13:34:11;13.30;31.10
2783;DHT22;1399;47.072;15.452;2023-03-17T13:47:33;13.30;30.40
2783;DHT22;1399;47.072;15.452;2023-03-17T13:50:23;13.30;30.20
2783;DHT22;1399;47.072;15.452;2023-03-17T13:52:52;13.30;30.30
2783;DHT22;1399;47.072;15.452;2023-03-17T13:58:15;13.30;31.30
2783;DHT22;1399;47.072;15.452;2023-03-17T14:00:46;13.30;31.20
2783;DHT22;1399;47.072;15.452;2023-03-17T14:03:32;13.30;31.50
2783;DHT22;1399;47.072;15.452;2023-03-17T14:06:02;13.30;30.90
2783;DHT22;1399;47.072;15.452;2023-03-17T14:08:34;13.30;31.20
2783;DHT22;1399;47.072;15.452;2023-03-17T14:11:04;13.30;31.30
2783;DHT22;1399;47.072;15.452;2023-03-17T14:16:44;13.30;31.00
2783;DHT22;1399;47.072;15.452;2023-03-17T14:19:23;13.30;31.00
2783;DHT22;1399;47.072;15.452;2023-03-17T14:21:51;13.20;30.90
2783;DHT22;1399;47.072;15.452;2023-03-17T14:24:21;13.20;30.80
2783;DHT22;1399;47.072;15.452;2023-03-17T14:26:48;13.20;30.70
2783;DHT22;1399;47.072;15.452;2023-03-17T14:29:18;13.20;30.60
2783;DHT22;1399;47.072;15.452;2023-03-17T14:31:47;13.20;31.30
2783;DHT22;1399;47.072;15.452;2023-03-17T14:34:14;13.20;31.50
2783;DHT22;1399;47.072;15.452;2023-03-17T14:36:41;13.20;31.20
2783;DHT22;1399;47.072;15.452;2023-03-17T14:39:22;13.20;31.00
2783;DHT22;1399;47.072;15.452;2023-03-17T14:41:57;13.20;31.00
2783;DHT22;1399;47.072;15.452;2023-03-17T14:44:23;13.20;30.80
2783;DHT22;1399;47.072;15.452;2023-03-17T14:46:49;13.20;30.80
2783;DHT22;1399;47.072;15.452;2023-03-17T14:49:17;13.20;31.50
2783;DHT22;1399;47.072;15.452;2023-03-17T14:51:46;13.20;31.90
2783;DHT22;1399;47.072;15.452;2023-03-17T14:54:18;13.20;32.30
2783;DHT22;1399;47.072;15.452;2023-03-17T14:57:04;13.10;32.30
2783;DHT22;1399;47.072;15.452;2023-03-17T14:59:37;13.20;32.40
2783;DHT22;1399;47.072;15.452;2023-03-17T15:02:35;13.20;32.30
2783;DHT22;1399;47.072;15.452;2023-03-17T15:05:24;13.30;32.30
2783;DHT22;1399;47.072;15.452;2023-03-17T15:07:52;13.20;32.10
2783;DHT22;1399;47.072;15.452;2023-03-17T15:10:23;13.30;32.10
2783;DHT22;1399;47.072;15.452;2023-03-17T15:12:59;13.30;32.00
2783;DHT22;1399;47.072;15.452;2023-03-17T15:15:28;13.30;32.10
2783;DHT22;1399;47.072;15.452;2023-03-17T15:17:58;13.30;31.90
2783;DHT22;1399;47.072;15.452;2023-03-17T15:20:25;13.30;32.20
2783;DHT22;1399;47.072;15.452;2023-03-17T15:22:59;13.30;32.10
2783;DHT22;1399;47.072;15.452;2023-03-17T15:27:57;13.30;31.60
2783;DHT22;1399;47.072;15.452;2023-03-17T15:30:23;13.30;31.40
2783;DHT22;1399;47.072;15.452;2023-03-17T15:33:00;13.30;31.30
2783;DHT22;1399;47.072;15.452;2023-03-17T15:35:27;13.30;31.20
2783;DHT22;1399;47.072;15.452;2023-03-17T15:37:53;13.30;31.30
2783;DHT22;1399;47.072;15.452;2023-03-17T15:40:19;13.30;31.10
2783;DHT22;1399;47.072;15.452;2023-03-17T15:42:45;13.30;31.10
2783;DHT22;1399;47.072;15.452;2023-03-17T15:45:15;13.30;31.20
2783;DHT22;1399;47.072;15.452;2023-03-17T15:47:43;13.30;31.20
2783;DHT22;1399;47.072;15.452;2023-03-17T15:50:25;13.30;31.50
2783;DHT22;1399;47.072;15.452;2023-03-17T15:52:52;13.30;31.60
2783;DHT22;1399;47.072;15.452;2023-03-17T15:55:30;13.30;31.40
2783;DHT22;1399;47.072;15.452;2023-03-17T15:57:58;13.30;31.20
2783;DHT22;1399;47.072;15.452;2023-03-17T16:00:26;13.30;31.00
2783;DHT22;1399;47.072;15.452;2023-03-17T16:02:55;13.30;31.10
2783;DHT22;1399;47.072;15.452;2023-03-17T16:05:27;13.30;31.10
2783;DHT22;1399;47.072;15.452;2023-03-17T16:07:53;13.30;30.90
2783;DHT22;1399;47.072;15.452;2023-03-17T16:10:22;13.30;31.20
2783;DHT22;1399;47.072;15.452;2023-03-17T16:12:48;13.30;31.30
2783;DHT22;1399;47.072;15.452;2023-03-17T16:15:16;13.30;31.50
2783;DHT22;1399;47.072;15.452;2023-03-17T16:17:43;13.30;31.80
2783;DHT22;1399;47.072;15.452;2023-03-17T16:22:44;13.30;31.40
2783;DHT22;1399;47.072;15.452;2023-03-17T16:27:49;13.20;30.70
2783;DHT22;1399;47.072;15.452;2023-03-17T16:30:24;13.20;30.70
2783;DHT22;1399;47.072;15.452;2023-03-17T16:32:52;13.20;30.70
2783;DHT22;1399;47.072;15.452;2023-03-17T16:35:20;13.20;30.50
2783;DHT22;1399;47.072;15.452;2023-03-17T16:37:47;13.20;30.40
2783;DHT22;1399;47.072;15.452;2023-03-17T16:40:19;13.20;30.50
2783;DHT22;1399;47.072;15.452;2023-03-17T16:42:46;13.20;30.40
2783;DHT22;1399;47.072;15.452;2023-03-17T16:45:26;13.20;30.60
2783;DHT22;1399;47.072;15.452;2023-03-17T16:47:53;13.10;30.50
2783;DHT22;1399;47.072;15.452;2023-03-17T16:50:22;13.10;30.40
2783;DHT22;1399;47.072;15.452;2023-03-17T16:52:48;13.10;30.40
2783;DHT22;1399;47.072;15.452;2023-03-17T16:55:16;13.10;30.30
2783;DHT22;1399;47.072;15.452;2023-03-17T16:57:48;13.10;30.20
2783;DHT22;1399;47.072;15.452;2023-03-17T17:00:20;13.10;30.20
2783;DHT22;1399;47.072;15.452;2023-03-17T17:02:50;13.00;30.00
2783;DHT22;1399;47.072;15.452;2023-03-17T17:05:23;13.00;30.00
2783;DHT22;1399;47.072;15.452;2023-03-17T17:07:50;13.00;29.90
2783;DHT22;1399;47.072;15.452;2023-03-17T17:10:18;13.00;29.80
2783;DHT22;1399;47.072;15.452;2023-03-17T17:12:45;13.00;29.80
2783;DHT22;1399;47.072;15.452;2023-03-17T17:15:18;12.90;29.70
2783;DHT22;1399;47.072;15.452;2023-03-17T17:17:50;12.90;29.60
2783;DHT22;1399;47.072;15.452;2023-03-17T17:20:30;12.90;29.60
2783;DHT22;1399;47.072;15.452;2023-03-17T17:22:58;12.90;29.60
2783;DHT22;1399;47.072;15.452;2023-03-17T17:25:24;12.90;29.50
2783;DHT22;1399;47.072;15.452;2023-03-17T17:27:51;12.90;29.50
2783;DHT22;1399;47.072;15.452;2023-03-17T17:30:21;12.80;29.50
2783;DHT22;1399;47.072;15.452;2023-03-17T17:32:48;12.80;29.40
2783;DHT22;1399;47.072;15.452;2023-03-17T17:35:15;12.80;29.40
2783;DHT22;1399;47.072;15.452;2023-03-17T17:37:41;12.80;29.40
2783;DHT22;1399;47.072;15.452;2023-03-17T17:40:11;12.80;29.30
2783;DHT22;1399;47.072;15.452;2023-03-17T17:42:39;12.80;29.30
2783;DHT22;1399;47.072;15.452;2023-03-17T17:45:05;12.70;29.20
2783;DHT22;1399;47.072;15.452;2023-03-17T17:47:32;12.70;29.10
2783;DHT22;1399;47.072;15.452;2023-03-17T17:49:58;12.70;29.10
2783;DHT22;1399;47.072;15.452;2023-03-17T17:52:27;12.70;29.10
2783;DHT22;1399;47.072;15.452;2023-03-17T17:54:53;12.70;29.00
2783;DHT22;1399;47.072;15.452;2023-03-17T17:57:20;12.60;28.90
2783;DHT22;1399;47.072;15.452;2023-03-17T17:59:46;12.60;28.90
2783;DHT22;1399;47.072;15.452;2023-03-17T18:02:12;12.60;29.00
2783;DHT22;1399;47.072;15.452;2023-03-17T18:04:38;12.60;29.00
2783;DHT22;1399;47.072;15.452;2023-03-17T18:07:05;12.60;29.10
2783;DHT22;1399;47.072;15.452;2023-03-17T18:09:31;12.50;29.10